Pella, IA

1:15 AM CST on February 11, 2016 (GMT -0600)
HADS | | Change Station
CLOSE
Current Station
Personal Weather Station
Location: Pella, IA
Elevation: 779 ft
Nearby Weather Stations

Elev 779 ft 41.37 °N, 92.98 °W | Updated 1 hour ago

Overcast
Overcast
16.0 °F
Feels Like 10 °F
N
4.0
Wind Variable Wind from NNE
Gusts 12.0 mph

Today
High -- | Low -- °F
--% Chance of Precip.
Yesterday
High -- | Low -- °F
Precip. -- in
Pressure 30.24 in
Visibility 10.0 miles
Clouds Overcast 3300 ft
Windchill 10 °F
Dew Point Not available.
Humidity Not available.
Rainfall in
Snow Depth Not available.
7:12 AM 5:40 PM
Waxing Crescent, 10% visible
METAR KPEA 110655Z AUTO 02005KT 10SM OVC033 M09/M13 A3024 RMK AO2 T10881131
Pressure 30.24 in
Visibility 10.0 miles
Clouds Overcast 3300 ft
Windchill 10 °F
Dew Point Not available.
Humidity Not available.
Rainfall in
Snow Depth Not available.
7:12 AM 5:40 PM
Waxing Crescent, 10% visible
METAR KPEA 110655Z AUTO 02005KT 10SM OVC033 M09/M13 A3024 RMK AO2 T10881131

10-Day Weather Forecast

Almanac

Astronomy

Feb. 11, 2016 Rise Set
Actual Time
Civil Twilight
Nautical Twilight
Astronomical Twilight
Moon
Length of Visible Light
Length of Day
Tomorrow will be .
, % of the Moon is Illuminated

Today's Extremes

State Highs State Lows

Community

WunderPhotos

Upload Photos

1,892,030 photos uploaded!

WunderBlog® & News

Nearby

Air Quality

  Air Quality AQ Index Pollutant
Not available.

Snow Depth

Station Depth Elevation

Earthquake Activity

City Distance Mag. Time & Date
Minimum magnitude displayed is 2.5.

Coastal Water Temperatures

Place Temperature

Stations

Nearby Weather Stations

Station Location Temp. Windchill Dew Point Humidity Wind Precip. Elev Updated Type
                   

Watches & Warnings

There are currently no watches in effect.